Time;durP1;ratioP1;P1;durP2;ratioP2;P2;SDS_P1;SDS_P2;PMS_P1;PMS_P2;Temp;Humidity;BMP_temperature;BMP_pressure;BME280_temperature;BME280_humidity;BME280_pressure;Samples;Min_cycle;Max_cycle;Signal;HPM_P1;HPM_P2
2023/01/10 00:00:54;;;;;;;1.47;1.37;;;;;;;6.07;81.08;95130.63;5076300;28;20296;-83
2023/01/10 00:03:20;;;;;;;1.50;1.30;;;;;;;6.09;81.90;95134.63;5075787;28;20209;-83
2023/01/10 00:05:47;;;;;;;1.97;1.50;;;;;;;6.01;81.48;95133.81;5077088;28;20204;-83
2023/01/10 00:08:15;;;;;;;1.60;1.50;;;;;;;6.00;81.34;95147.56;5076439;28;20208;-83
2023/01/10 00:10:41;;;;;;;1.60;1.40;;;;;;;5.96;81.24;95144.53;5075714;28;20232;-83
2023/01/10 00:13:22;;;;;;;1.40;1.30;;;;;;;5.95;80.76;95145.50;5075530;28;20217;-83
2023/01/10 00:15:48;;;;;;;1.43;1.33;;;;;;;5.95;81.05;95145.50;5076289;28;20622;-83
2023/01/10 00:18:15;;;;;;;1.50;1.40;;;;;;;5.99;80.92;95153.63;5075332;28;20208;-83
2023/01/10 00:20:43;;;;;;;2.43;1.40;;;;;;;6.05;80.57;95147.88;5076812;28;20201;-83
2023/01/10 00:23:09;;;;;;;1.63;1.53;;;;;;;6.09;79.93;95164.50;5076596;28;20204;-83
2023/01/10 00:25:36;;;;;;;1.97;1.47;;;;;;;6.10;79.88;95166.09;5077683;28;20220;-83
2023/01/10 00:28:09;;;;;;;1.30;1.20;;;;;;;6.16;80.02;95161.13;5077632;28;20246;-83
2023/01/10 00:30:39;;;;;;;1.47;1.37;;;;;;;6.23;80.36;95167.22;5076714;28;20204;-83
2023/01/10 00:33:06;;;;;;;1.40;1.30;;;;;;;6.33;79.23;95177.28;5076835;28;20296;-83
2023/01/10 00:35:32;;;;;;;2.30;1.20;;;;;;;6.44;79.21;95184.63;5076675;28;20243;-83
2023/01/10 00:38:04;;;;;;;1.37;1.27;;;;;;;6.46;79.18;95182.72;5076388;28;20212;-83
2023/01/10 00:40:31;;;;;;;1.73;1.30;;;;;;;6.37;80.66;95193.88;5078253;28;20223;-83
2023/01/10 00:45:44;;;;;;;1.40;1.30;;;;;;;6.50;79.43;95198.53;5077030;28;20254;-83
2023/01/10 00:48:11;;;;;;;2.97;1.30;;;;;;;6.49;79.15;95202.06;5077262;28;20201;-83
2023/01/10 00:50:40;;;;;;;1.43;1.30;;;;;;;6.51;78.90;95207.81;5076096;28;20262;-83
2023/01/10 00:53:06;;;;;;;1.37;1.27;;;;;;;6.54;77.97;95207.50;5076872;28;20217;-83
2023/01/10 00:55:34;;;;;;;1.10;1.00;;;;;;;6.46;78.65;95215.16;5077136;28;20228;-82
2023/01/10 00:58:01;;;;;;;1.97;1.20;;;;;;;6.45;78.05;95213.56;5075174;28;20200;-82
2023/01/10 01:00:27;;;;;;;1.77;1.20;;;;;;;6.43;78.03;95223.13;5076110;28;20212;-85
2023/01/10 01:02:56;;;;;;;1.83;1.27;;;;;;;6.38;78.07;95223.59;5075732;28;20204;-85
2023/01/10 01:05:22;;;;;;;1.20;1.10;;;;;;;6.41;78.27;95222.50;5075726;28;20645;-84
2023/01/10 01:07:49;;;;;;;1.57;1.23;;;;;;;6.33;78.24;95227.63;5076619;28;20196;-82
2023/01/10 01:10:28;;;;;;;1.63;1.37;;;;;;;6.42;78.39;95231.75;5076988;28;20201;-82
2023/01/10 01:12:56;;;;;;;1.20;1.10;;;;;;;6.43;78.58;95239.28;5076082;28;20224;-85
2023/01/10 01:15:23;;;;;;;1.27;1.10;;;;;;;6.40;78.91;95246.47;5075920;28;20228;-85
2023/01/10 01:17:50;;;;;;;1.20;1.10;;;;;;;6.33;79.54;95248.88;5075468;28;20247;-85
2023/01/10 01:20:18;;;;;;;2.77;1.13;;;;;;;6.36;79.13;95251.09;5075180;28;20192;-85
2023/01/10 01:22:45;;;;;;;0.97;0.97;;;;;;;6.39;78.90;95255.88;5075463;28;20247;-85
2023/01/10 01:25:11;;;;;;;1.10;1.00;;;;;;;6.41;79.05;95265.97;5075409;28;20220;-85
2023/01/10 01:27:38;;;;;;;1.43;1.20;;;;;;;6.34;79.44;95273.50;5074889;28;20204;-82
2023/01/10 01:30:06;;;;;;;1.20;1.10;;;;;;;6.37;80.35;95275.69;5077936;28;20201;-82
2023/01/10 01:32:33;;;;;;;1.67;1.30;;;;;;;6.34;79.39;95272.69;5079390;28;20605;-82
2023/01/10 01:34:59;;;;;;;1.30;1.20;;;;;;;6.34;78.84;95282.91;5079064;28;20639;-82
2023/01/10 01:37:27;;;;;;;1.80;1.00;;;;;;;6.35;79.12;95279.41;5079635;28;20224;-82
2023/01/10 01:39:53;;;;;;;1.30;1.20;;;;;;;6.39;78.71;95280.66;5078499;28;20702;-82
2023/01/10 01:42:24;;;;;;;1.43;1.17;;;;;;;6.45;78.81;95293.63;5078416;28;20197;-82
2023/01/10 01:45:24;;;;;;;1.47;1.00;;;;;;;6.51;78.41;95293.00;5078480;28;20296;-82
2023/01/10 01:47:56;;;;;;;1.30;1.00;;;;;;;6.56;77.64;95302.72;5078299;28;20208;-82
2023/01/10 01:50:27;;;;;;;1.23;1.13;;;;;;;6.53;77.19;95311.53;5078930;28;20226;-82
2023/01/10 01:52:57;;;;;;;1.50;1.00;;;;;;;6.48;78.29;95306.09;5079190;28;20220;-82
2023/01/10 01:55:26;;;;;;;2.17;1.00;;;;;;;6.46;76.82;95310.56;5079392;28;20228;-82
2023/01/10 01:57:55;;;;;;;1.87;0.90;;;;;;;6.38;77.30;95314.84;5077355;28;20692;-82
2023/01/10 02:00:21;;;;;;;1.07;0.97;;;;;;;6.43;77.62;95321.09;5079996;28;20212;-82
2023/01/10 02:02:52;;;;;;;1.17;1.07;;;;;;;6.46;77.61;95313.13;5078760;28;20200;-82
2023/01/10 02:05:21;;;;;;;1.37;1.10;;;;;;;6.47;77.51;95322.41;5078421;28;20347;-82
2023/01/10 02:07:51;;;;;;;1.03;0.90;;;;;;;6.50;77.29;95322.09;5078811;28;20205;-82
2023/01/10 02:10:24;;;;;;;1.90;1.07;;;;;;;6.50;77.48;95318.72;5079495;28;20197;-82
2023/01/10 02:12:53;;;;;;;1.60;1.00;;;;;;;6.46;77.36;95325.91;5079141;28;20213;-82
2023/01/10 02:15:20;;;;;;;1.37;1.00;;;;;;;6.48;76.79;95325.75;5078280;28;20221;-82
2023/01/10 02:17:48;;;;;;;1.30;1.20;;;;;;;6.49;77.26;95325.59;5077966;28;20205;-82
2023/01/10 02:20:16;;;;;;;2.37;1.10;;;;;;;6.47;77.09;95331.81;5077930;28;20204;-82
2023/01/10 02:23:20;;;;;;;1.83;1.20;;;;;;;6.40;76.48;95336.75;5078357;28;20311;-82
2023/01/10 02:26:25;;;;;;;1.50;1.10;;;;;;;6.49;76.81;95343.50;5053198;28;20822;-82
2023/01/10 02:29:31;;;;;;;2.43;1.20;;;;;;;6.55;76.53;95349.72;5074568;28;20193;-82
2023/01/10 02:32:25;;;;;;;3.07;1.20;;;;;;;6.49;76.31;95355.50;5050196;28;20204;-82
2023/01/10 02:35:05;;;;;;;1.23;1.13;;;;;;;6.45;76.57;95352.44;5078321;28;20613;-82
2023/01/10 02:37:45;;;;;;;0.93;0.93;;;;;;;6.39;76.32;95355.63;5077691;28;20219;-82
2023/01/10 02:40:22;;;;;;;1.60;1.17;;;;;;;6.36;76.60;95358.47;5077550;28;20204;-82
2023/01/10 02:42:55;;;;;;;1.20;1.03;;;;;;;6.28;76.70;95357.66;5077883;28;20196;-82
2023/01/10 02:45:28;;;;;;;1.20;1.10;;;;;;;6.27;76.71;95353.50;5077053;28;20247;-82
2023/01/10 02:47:56;;;;;;;1.67;1.23;;;;;;;6.26;76.98;95357.81;5077656;28;20254;-82
2023/01/10 02:50:30;;;;;;;1.33;1.23;;;;;;;6.24;76.60;95369.97;5077624;28;20201;-82
2023/01/10 02:52:58;;;;;;;1.00;0.90;;;;;;;6.30;76.26;95371.09;5077733;28;20703;-82
2023/01/10 02:55:32;;;;;;;0.83;0.83;;;;;;;6.16;76.71;95373.28;5077419;28;20225;-82
2023/01/10 02:58:07;;;;;;;1.60;1.20;;;;;;;6.15;77.27;95373.47;5077080;28;20220;-82
2023/01/10 03:00:45;;;;;;;1.13;1.03;;;;;;;6.07;77.33;95386.19;5077988;28;20219;-82
2023/01/10 03:03:32;;;;;;;0.93;0.93;;;;;;;6.13;77.23;95381.28;5077892;28;20222;-82
2023/01/10 03:06:11;;;;;;;1.20;1.10;;;;;;;6.13;77.02;95388.13;5057472;28;20205;-82
2023/01/10 03:08:43;;;;;;;0.90;0.90;;;;;;;6.16;76.80;95383.50;5057130;28;20251;-82
2023/01/10 03:11:11;;;;;;;1.30;0.93;;;;;;;6.19;76.63;95388.31;5057321;28;20695;-82
2023/01/10 03:13:42;;;;;;;1.53;1.00;;;;;;;6.24;76.10;95396.31;5057082;28;20410;-82
2023/01/10 03:16:14;;;;;;;2.30;1.00;;;;;;;6.22;76.16;95397.44;5058321;28;20217;-82
2023/01/10 03:18:47;;;;;;;1.00;0.97;;;;;;;6.17;76.65;95407.31;5057822;28;20202;-82
2023/01/10 03:21:14;;;;;;;0.90;0.90;;;;;;;6.21;76.52;95408.59;5057391;28;20201;-82
2023/01/10 03:23:40;;;;;;;0.90;0.90;;;;;;;6.13;76.67;95414.50;5071174;28;20216;-82
2023/01/10 03:26:09;;;;;;;0.90;0.90;;;;;;;6.18;76.59;95429.34;5077168;28;20193;-82
2023/01/10 03:28:45;;;;;;;0.90;0.90;;;;;;;6.19;76.33;95431.75;5077646;28;20939;-82
2023/01/10 03:31:17;;;;;;;1.27;1.13;;;;;;;6.22;76.88;95441.69;5077861;28;20232;-82
2023/01/10 03:33:45;;;;;;;1.10;1.03;;;;;;;6.23;76.32;95442.47;5076814;28;20220;-82
2023/01/10 03:36:25;;;;;;;1.20;1.10;;;;;;;6.15;76.39;95439.91;5076624;28;20205;-82
2023/01/10 03:38:55;;;;;;;1.20;1.00;;;;;;;6.10;76.60;95445.47;5075974;28;20200;-82
2023/01/10 03:41:33;;;;;;;1.13;1.03;;;;;;;6.02;76.59;95455.63;5076798;28;20696;-82
2023/01/10 03:46:59;;;;;;;0.90;0.90;;;;;;;6.09;76.70;95469.44;5077368;28;20215;-82
2023/01/10 03:49:29;;;;;;;0.90;0.90;;;;;;;6.14;77.01;95472.34;5076410;28;20208;-82
2023/01/10 03:51:58;;;;;;;1.00;1.00;;;;;;;6.19;76.76;95474.41;5075058;28;20215;-82
2023/01/10 03:54:25;;;;;;;1.33;1.10;;;;;;;6.14;77.34;95479.19;5076773;28;20262;-82
2023/01/10 03:56:51;;;;;;;0.90;0.90;;;;;;;6.16;77.39;95479.81;5075063;28;20193;-82
2023/01/10 03:59:20;;;;;;;1.20;1.10;;;;;;;6.18;76.79;95490.69;5076114;28;20388;-82
2023/01/10 04:01:50;;;;;;;0.90;0.90;;;;;;;6.19;77.02;95492.31;5076263;28;20255;-82
2023/01/10 04:04:16;;;;;;;1.20;1.10;;;;;;;6.12;77.36;95499.00;5075703;28;20254;-82
2023/01/10 04:06:44;;;;;;;1.40;1.00;;;;;;;6.17;77.18;95501.88;5076535;28;20204;-82
2023/01/10 04:09:11;;;;;;;1.33;1.10;;;;;;;6.13;77.36;95503.16;5075955;28;20753;-82
2023/01/10 04:11:37;;;;;;;1.00;1.00;;;;;;;6.09;77.40;95509.50;5075561;28;20204;-82
2023/01/10 04:14:04;;;;;;;1.17;1.00;;;;;;;6.10;77.33;95509.38;5075037;28;20224;-83
2023/01/10 04:16:31;;;;;;;1.20;1.10;;;;;;;6.14;77.23;95512.44;5076453;28;20197;-82
2023/01/10 04:18:57;;;;;;;1.47;1.27;;;;;;;6.17;77.02;95523.13;5074328;28;20196;-82
2023/01/10 04:21:24;;;;;;;1.20;1.10;;;;;;;6.17;76.93;95527.44;5075212;28;20205;-82
2023/01/10 04:23:52;;;;;;;1.57;1.13;;;;;;;6.18;77.08;95536.72;5075377;28;20220;-82
2023/01/10 04:26:18;;;;;;;1.30;1.20;;;;;;;6.21;77.04;95547.44;5075030;28;20242;-82
2023/01/10 04:28:45;;;;;;;1.40;1.30;;;;;;;6.21;77.29;95544.88;5074697;28;20606;-82
2023/01/10 04:31:11;;;;;;;1.27;1.10;;;;;;;6.15;78.52;95555.72;5075057;28;20209;-82
2023/01/10 04:33:39;;;;;;;1.37;1.27;;;;;;;6.17;78.00;95561.47;5074777;28;20302;-82
2023/01/10 04:36:07;;;;;;;1.57;1.30;;;;;;;6.22;78.12;95561.84;5075659;28;20236;-82
2023/01/10 04:38:33;;;;;;;1.40;1.30;;;;;;;6.22;78.07;95561.03;5075238;28;20211;-82
2023/01/10 04:41:01;;;;;;;1.30;1.20;;;;;;;6.26;77.97;95556.41;5074846;28;20196;-82
2023/01/10 04:43:27;;;;;;;1.73;1.63;;;;;;;6.23;78.47;95560.88;5075632;28;20262;-82
2023/01/10 04:45:54;;;;;;;1.60;1.50;;;;;;;6.21;78.51;95572.22;5074440;28;20314;-85
2023/01/10 04:48:20;;;;;;;1.30;1.20;;;;;;;6.30;78.96;95573.06;5074015;28;20205;-85
2023/01/10 04:50:50;;;;;;;1.33;1.23;;;;;;;6.25;78.41;95578.63;5074241;28;20571;-85
2023/01/10 04:53:19;;;;;;;1.30;1.20;;;;;;;6.23;78.39;95583.88;5073059;28;20220;-84
2023/01/10 04:55:47;;;;;;;1.97;1.53;;;;;;;6.28;79.03;95588.56;5073657;28;20232;-82
2023/01/10 04:58:15;;;;;;;1.50;1.40;;;;;;;6.28;79.69;95588.56;5075387;28;20725;-82
2023/01/10 05:00:41;;;;;;;1.27;1.17;;;;;;;6.32;80.17;95587.31;5075134;28;20205;-82
2023/01/10 05:03:08;;;;;;;1.40;1.30;;;;;;;6.30;80.60;95601.19;5072122;28;20205;-82
2023/01/10 05:05:34;;;;;;;2.17;1.40;;;;;;;6.11;82.52;95600.44;5078462;28;20227;-82
2023/01/10 05:08:01;;;;;;;1.50;1.40;;;;;;;6.01;82.63;95611.66;5078470;28;20205;-82
2023/01/10 05:10:27;;;;;;;2.03;1.43;;;;;;;5.97;83.17;95613.72;5078726;28;20238;-82
2023/01/10 05:12:53;;;;;;;1.40;1.30;;;;;;;5.89;83.41;95614.47;5079310;28;20258;-82
2023/01/10 05:15:22;;;;;;;1.47;1.30;;;;;;;5.92;84.09;95621.03;5078428;28;20290;-82
2023/01/10 05:17:50;;;;;;;1.40;1.30;;;;;;;5.99;84.13;95629.72;5078971;28;20203;-82
2023/01/10 05:20:17;;;;;;;1.60;1.40;;;;;;;6.06;83.72;95635.03;5078492;28;20246;-82
2023/01/10 05:22:43;;;;;;;1.90;1.70;;;;;;;6.04;83.37;95644.59;5078242;28;20200;-82
2023/01/10 05:25:13;;;;;;;1.70;1.60;;;;;;;5.98;84.02;95643.44;5078702;28;20800;-82
2023/01/10 05:27:41;;;;;;;1.47;1.37;;;;;;;5.94;84.31;95643.91;5078058;28;20209;-82
2023/01/10 05:30:10;;;;;;;1.60;1.50;;;;;;;5.97;83.90;95649.50;5077887;28;20228;-82
2023/01/10 05:32:38;;;;;;;1.53;1.43;;;;;;;6.00;83.60;95653.50;5061059;28;20211;-82
2023/01/10 05:35:06;;;;;;;1.40;1.30;;;;;;;5.99;83.71;95657.81;5078044;28;20224;-82
2023/01/10 05:37:32;;;;;;;1.40;1.30;;;;;;;6.00;83.30;95648.41;5077519;28;20193;-82
2023/01/10 05:39:58;;;;;;;1.60;1.30;;;;;;;5.99;83.19;95667.22;5077498;28;20560;-82
2023/01/10 05:42:25;;;;;;;1.40;1.30;;;;;;;5.96;83.01;95668.34;5077282;28;20212;-82
2023/01/10 05:44:51;;;;;;;1.27;1.17;;;;;;;5.96;83.19;95668.34;5078172;28;20217;-82
2023/01/10 05:47:18;;;;;;;1.23;1.13;;;;;;;5.91;83.50;95672.28;5078250;28;20197;-82
2023/01/10 05:49:45;;;;;;;1.40;1.30;;;;;;;5.91;83.69;95685.06;5077353;28;20200;-82
2023/01/10 05:52:12;;;;;;;1.13;1.07;;;;;;;5.88;83.39;95681.84;5074898;28;20208;-82
2023/01/10 05:54:39;;;;;;;1.23;1.17;;;;;;;5.91;83.30;95690.97;5074907;28;20312;-82
2023/01/10 05:57:06;;;;;;;1.17;1.10;;;;;;;5.84;83.72;95697.56;5076264;28;20204;-82
2023/01/10 05:59:32;;;;;;;1.10;1.10;;;;;;;5.85;83.10;95710.22;5076887;28;20204;-82
2023/01/10 06:01:59;;;;;;;1.20;1.10;;;;;;;5.80;83.43;95699.59;5074863;28;20270;-82
2023/01/10 06:04:25;;;;;;;1.30;1.20;;;;;;;5.86;83.04;95719.47;5075687;28;20217;-82
2023/01/10 06:06:53;;;;;;;1.00;1.00;;;;;;;5.99;82.54;95723.47;5076555;28;20209;-82
2023/01/10 06:09:19;;;;;;;1.00;1.00;;;;;;;5.98;81.87;95724.41;5077986;28;20221;-85
2023/01/10 06:11:46;;;;;;;1.73;1.10;;;;;;;5.96;82.07;95732.25;5079187;28;20208;-85
2023/01/10 06:14:12;;;;;;;1.57;1.47;;;;;;;5.97;82.30;95733.00;5076390;28;20217;-84
2023/01/10 06:16:40;;;;;;;1.40;1.30;;;;;;;5.96;82.28;95736.53;5076059;28;20208;-85
2023/01/10 06:19:08;;;;;;;2.27;1.60;;;;;;;6.03;83.24;95742.66;5076589;28;20204;-85
2023/01/10 06:21:34;;;;;;;1.53;1.30;;;;;;;6.07;81.61;95749.09;5076844;28;20197;-82
2023/01/10 06:24:02;;;;;;;7.00;5.70;;;;;;;6.02;81.61;95761.50;5075062;28;20240;-82
2023/01/10 06:26:29;;;;;;;1.43;1.30;;;;;;;5.93;81.21;95758.06;5077825;28;20837;-82
2023/01/10 06:28:57;;;;;;;1.00;1.00;;;;;;;5.91;81.09;95765.06;5077564;28;20200;-82
2023/01/10 06:31:23;;;;;;;1.10;1.10;;;;;;;5.94;80.85;95761.44;5078396;28;20288;-82
2023/01/10 06:33:50;;;;;;;1.10;1.00;;;;;;;6.02;81.22;95764.88;5077995;28;20281;-82
2023/01/10 06:36:17;;;;;;;0.97;0.97;;;;;;;5.91;81.35;95769.38;5077927;28;20235;-85
2023/01/10 06:38:43;;;;;;;1.10;1.00;;;;;;;5.94;81.16;95789.53;5076227;28;20208;-85
2023/01/10 06:41:13;;;;;;;0.90;0.90;;;;;;;5.92;81.29;95789.69;5077603;28;20234;-82
2023/01/10 06:43:40;;;;;;;1.00;1.00;;;;;;;5.82;81.11;95799.91;5078045;28;20204;-82
2023/01/10 06:46:08;;;;;;;0.90;0.90;;;;;;;5.86;81.30;95797.88;5077310;28;20235;-82
2023/01/10 06:48:35;;;;;;;1.00;1.00;;;;;;;5.86;81.01;95806.34;5076503;28;20205;-82
2023/01/10 06:51:02;;;;;;;1.17;1.07;;;;;;;5.95;80.90;95816.72;5076924;28;20243;-82
2023/01/10 06:53:28;;;;;;;1.27;1.07;;;;;;;6.06;80.35;95821.63;5076506;28;20197;-82
2023/01/10 06:55:56;;;;;;;1.90;1.10;;;;;;;6.14;79.73;95830.19;5076361;28;20296;-82
2023/01/10 06:58:24;;;;;;;1.00;1.00;;;;;;;6.14;79.98;95834.50;5076768;28;20201;-85
2023/01/10 07:00:50;;;;;;;1.23;1.10;;;;;;;6.01;79.32;95854.47;5075906;28;20290;-85
2023/01/10 07:03:17;;;;;;;1.10;1.00;;;;;;;6.00;80.24;95851.09;5076470;28;20207;-85
2023/01/10 07:05:47;;;;;;;0.90;0.90;;;;;;;6.07;79.72;95852.16;5075743;28;20282;-84
2023/01/10 07:08:13;;;;;;;1.03;1.00;;;;;;;6.03;79.85;95850.81;5076138;28;20288;-84
2023/01/10 07:10:44;;;;;;;1.30;1.20;;;;;;;6.04;79.89;95870.31;5076837;28;20642;-85
2023/01/10 07:13:11;;;;;;;1.20;1.10;;;;;;;6.01;79.71;95878.25;5078195;28;20224;-85
2023/01/10 07:15:38;;;;;;;1.37;1.20;;;;;;;5.99;79.60;95887.81;5078433;28;20229;-85
2023/01/10 07:18:05;;;;;;;1.30;1.20;;;;;;;5.88;79.60;95893.94;5077355;28;20928;-85
2023/01/10 07:20:31;;;;;;;1.60;1.50;;;;;;;5.94;80.14;95897.69;5076761;28;20205;-85
2023/01/10 07:22:59;;;;;;;1.30;1.20;;;;;;;5.87;79.74;95905.06;5077921;28;20196;-85
2023/01/10 07:25:28;;;;;;;1.30;1.20;;;;;;;5.78;80.46;95910.19;5077512;28;20228;-82
2023/01/10 07:27:55;;;;;;;1.50;1.40;;;;;;;5.80;80.48;95923.63;5076256;28;20253;-85
2023/01/10 07:30:22;;;;;;;1.53;1.40;;;;;;;5.86;80.73;95928.19;5078065;28;20201;-85
2023/01/10 07:32:54;;;;;;;1.60;1.23;;;;;;;5.88;80.11;95937.38;5078119;28;20224;-82
2023/01/10 07:35:21;;;;;;;1.40;1.30;;;;;;;5.96;80.16;95946.91;5076350;28;20248;-82
2023/01/10 07:37:47;;;;;;;1.50;1.40;;;;;;;6.01;80.23;95952.38;5076245;28;20203;-82
2023/01/10 07:40:14;;;;;;;1.90;1.70;;;;;;;5.99;80.61;95959.38;5076578;28;20200;-83
2023/01/10 07:42:41;;;;;;;1.43;1.33;;;;;;;6.02;82.09;95971.06;5075519;28;20204;-82
2023/01/10 07:45:08;;;;;;;2.07;1.80;;;;;;;6.03;81.96;95965.03;5074522;28;20213;-82
2023/01/10 07:47:34;;;;;;;1.67;1.57;;;;;;;6.02;81.58;95971.06;5074995;28;20204;-82
2023/01/10 07:50:02;;;;;;;3.33;2.03;;;;;;;6.05;80.90;95973.38;5076111;28;20228;-82
2023/01/10 07:52:29;;;;;;;1.77;1.67;;;;;;;6.15;80.14;95981.81;5075599;28;20207;-83
2023/01/10 07:54:55;;;;;;;2.07;1.50;;;;;;;6.14;80.22;95991.25;5075773;28;20229;-82
2023/01/10 07:57:22;;;;;;;2.03;1.50;;;;;;;6.17;80.68;95990.94;5073688;28;20235;-82
2023/01/10 07:59:48;;;;;;;2.30;1.67;;;;;;;6.16;79.73;95991.88;5075398;28;20208;-84
2023/01/10 08:02:17;;;;;;;2.37;1.70;;;;;;;6.17;79.57;95998.59;5075620;28;20205;-85
2023/01/10 08:04:43;;;;;;;1.90;1.70;;;;;;;6.14;79.65;96010.88;5075346;28;20244;-85
2023/01/10 08:07:11;;;;;;;2.20;1.90;;;;;;;6.13;79.84;96007.53;5073854;28;20238;-85
2023/01/10 08:09:40;;;;;;;2.17;1.77;;;;;;;6.05;80.85;96014.25;5074921;28;20209;-84
2023/01/10 08:12:07;;;;;;;2.33;1.80;;;;;;;6.00;82.14;96024.88;5075891;28;20200;-84
2023/01/10 08:14:33;;;;;;;1.93;1.70;;;;;;;6.04;82.47;96028.78;5077039;28;20259;-85
2023/01/10 08:17:00;;;;;;;2.27;1.90;;;;;;;6.01;83.49;96036.72;5058294;28;20205;-85
2023/01/10 08:19:26;;;;;;;2.10;1.90;;;;;;;6.09;83.30;96030.94;5066219;28;20209;-84
2023/01/10 08:21:54;;;;;;;2.10;1.80;;;;;;;6.08;82.62;96030.13;5077502;28;20235;-85
2023/01/10 08:24:22;;;;;;;4.57;2.77;;;;;;;6.05;83.40;96034.72;5078213;28;20257;-85
2023/01/10 08:26:48;;;;;;;3.93;2.37;;;;;;;6.06;83.57;96049.91;5077589;28;20230;-85
2023/01/10 08:29:15;;;;;;;2.50;2.30;;;;;;;6.04;82.50;96050.97;5077843;28;20200;-85
2023/01/10 08:31:41;;;;;;;4.03;2.40;;;;;;;6.09;82.25;96056.50;5078286;28;20200;-85
2023/01/10 08:34:13;;;;;;;3.10;2.23;;;;;;;6.17;81.37;96059.97;5075226;28;20228;-85
2023/01/10 08:36:42;;;;;;;2.40;2.20;;;;;;;6.22;81.42;96060.38;5077176;28;20201;-85
2023/01/10 08:39:09;;;;;;;3.43;1.97;;;;;;;6.18;80.92;96074.38;5075285;28;20204;-85
2023/01/10 08:41:38;;;;;;;4.27;2.00;;;;;;;6.13;80.77;96084.22;5075705;28;20619;-85
2023/01/10 08:44:04;;;;;;;2.73;1.67;;;;;;;6.13;80.88;96079.09;5075671;28;20224;-85
2023/01/10 08:46:31;;;;;;;2.90;1.90;;;;;;;6.16;80.44;96081.38;5075356;28;20193;-85
2023/01/10 08:48:57;;;;;;;2.53;1.70;;;;;;;6.12;80.54;96084.34;5073310;28;20205;-85
2023/01/10 08:51:24;;;;;;;2.93;1.90;;;;;;;6.08;81.23;96093.22;5074925;28;20287;-82
2023/01/10 08:53:50;;;;;;;1.90;1.70;;;;;;;6.10;80.57;96099.81;5075085;28;20221;-84
2023/01/10 08:56:17;;;;;;;2.93;1.70;;;;;;;6.06;79.98;96095.09;5072248;28;20245;-84
2023/01/10 08:58:45;;;;;;;2.07;1.40;;;;;;;6.14;80.38;96103.72;5073361;28;20201;-85
2023/01/10 09:01:13;;;;;;;9.47;2.73;;;;;;;6.08;80.97;96114.50;5060547;28;20223;-84
2023/01/10 09:03:39;;;;;;;5.27;2.03;;;;;;;5.99;81.10;96122.94;5073658;28;20223;-82
2023/01/10 09:06:07;;;;;;;3.63;1.70;;;;;;;5.93;81.51;96127.81;5074085;28;20224;-85
2023/01/10 09:08:33;;;;;;;2.50;1.50;;;;;;;5.98;81.48;96129.00;5074494;28;20622;-85
2023/01/10 09:11:00;;;;;;;8.73;1.90;;;;;;;5.87;81.80;96147.00;5073117;28;20230;-85
2023/01/10 09:13:27;;;;;;;2.30;1.30;;;;;;;5.82;81.78;96139.72;5074623;28;20201;-85
2023/01/10 09:15:55;;;;;;;4.60;1.77;;;;;;;5.82;82.19;96139.72;5075545;28;20278;-82
2023/01/10 09:18:23;;;;;;;2.77;1.30;;;;;;;5.76;83.55;96136.91;5075789;28;20208;-83
2023/01/10 09:20:50;;;;;;;4.10;1.90;;;;;;;5.83;83.56;96140.53;5073398;28;20212;-85
2023/01/10 09:23:19;;;;;;;10.33;2.20;;;;;;;5.89;83.71;96145.16;5073530;28;20208;-85
2023/01/10 09:25:46;;;;;;;5.20;1.93;;;;;;;5.93;83.35;96141.41;5073891;28;20240;-85
2023/01/10 09:28:12;;;;;;;5.63;1.80;;;;;;;6.04;83.54;96148.91;5074722;28;20852;-85
2023/01/10 09:30:39;;;;;;;2.47;1.70;;;;;;;6.20;82.92;96138.94;5074806;28;20201;-84
2023/01/10 09:33:08;;;;;;;5.13;1.63;;;;;;;6.34;82.77;96145.44;5073921;28;20223;-84
2023/01/10 09:35:37;;;;;;;3.40;1.80;;;;;;;6.49;82.21;96140.69;5074695;28;20259;-85
2023/01/10 09:38:07;;;;;;;5.20;1.80;;;;;;;6.84;80.91;96158.78;5075542;28;20205;-85
2023/01/10 09:40:56;;;;;;;4.33;2.03;;;;;;;7.06;79.94;96151.69;5073270;28;20229;-85
2023/01/10 09:43:31;;;;;;;3.23;1.77;;;;;;;7.21;78.67;96168.22;5075670;28;20204;-85
2023/01/10 09:46:04;;;;;;;2.73;1.93;;;;;;;7.32;78.21;96170.56;5075429;28;20204;-82
2023/01/10 09:48:43;;;;;;;2.27;1.70;;;;;;;7.30;80.05;96159.69;5074833;28;20228;-82
2023/01/10 09:51:22;;;;;;;5.23;1.90;;;;;;;7.39;79.00;96160.59;5077076;28;20188;-82
2023/01/10 09:53:50;;;;;;;9.47;1.97;;;;;;;7.34;79.53;96161.00;5079214;28;20307;-85
2023/01/10 09:56:18;;;;;;;4.80;2.27;;;;;;;7.41;79.19;96164.63;5077158;28;20223;-85
2023/01/10 09:58:46;;;;;;;7.40;1.97;;;;;;;7.35;78.23;96166.94;5078724;28;20197;-85
2023/01/10 10:01:17;;;;;;;2.97;2.00;;;;;;;7.18;77.79;96168.50;5078352;28;20220;-83
2023/01/10 10:03:53;;;;;;;2.80;2.00;;;;;;;7.07;77.55;96176.34;5078219;28;20196;-83
2023/01/10 10:06:21;;;;;;;3.33;1.70;;;;;;;6.94;75.97;96176.66;5078132;28;20204;-82
2023/01/10 10:08:48;;;;;;;3.07;1.70;;;;;;;6.83;76.44;96174.28;5077839;28;20200;-82
2023/01/10 10:11:30;;;;;;;9.10;2.20;;;;;;;6.83;76.62;96185.31;5077974;28;20204;-83
2023/01/10 10:14:03;;;;;;;4.40;1.60;;;;;;;6.81;75.71;96179.53;5078923;28;20232;-82
2023/01/10 10:16:54;;;;;;;5.77;2.50;;;;;;;6.76;74.54;96180.88;5078001;28;20221;-83
2023/01/10 10:19:32;;;;;;;3.27;1.57;;;;;;;6.59;74.77;96183.19;5077027;28;20201;-82
2023/01/10 10:22:08;;;;;;;4.10;1.60;;;;;;;6.65;74.71;96179.28;5077288;28;20664;-85
2023/01/10 10:24:52;;;;;;;4.33;1.60;;;;;;;6.67;74.51;96169.72;5076285;28;20272;-85
2023/01/10 10:27:22;;;;;;;3.73;1.60;;;;;;;6.68;74.30;96160.31;5078625;28;20219;-85
2023/01/10 10:30:11;;;;;;;4.37;1.60;;;;;;;6.71;73.85;96165.16;5077623;28;20192;-85
2023/01/10 10:33:04;;;;;;;3.00;1.70;;;;;;;6.76;73.26;96163.78;5077738;28;20262;-85
2023/01/10 10:35:40;;;;;;;4.83;1.50;;;;;;;6.87;72.66;96163.63;5077100;28;20308;-83
2023/01/10 10:38:13;;;;;;;4.67;1.50;;;;;;;6.83;71.70;96164.84;5077523;28;20279;-83
2023/01/10 10:40:43;;;;;;;2.83;1.50;;;;;;;6.78;70.63;96151.66;5078013;28;20204;-82
2023/01/10 10:43:21;;;;;;;5.33;1.60;;;;;;;6.81;70.82;96153.13;5074560;28;20200;-82
2023/01/10 10:45:52;;;;;;;3.63;1.43;;;;;;;6.85;69.59;96157.84;5071574;28;20212;-83
2023/01/10 10:48:23;;;;;;;3.07;1.60;;;;;;;6.83;69.13;96166.59;5071050;28;20562;-85
2023/01/10 10:51:00;;;;;;;3.57;1.40;;;;;;;6.89;69.44;96145.56;5070781;28;20500;-85
2023/01/10 10:53:30;;;;;;;3.60;1.40;;;;;;;6.97;68.41;96148.22;5071889;28;20954;-85
2023/01/10 10:55:58;;;;;;;3.47;1.50;;;;;;;7.01;67.85;96152.13;5071981;28;20229;-85
2023/01/10 10:58:25;;;;;;;3.70;1.30;;;;;;;7.11;67.32;96168.25;5073385;28;20200;-85
2023/01/10 11:00:51;;;;;;;2.43;1.40;;;;;;;7.08;66.58;96160.06;5077030;28;20568;-82
2023/01/10 11:03:35;;;;;;;4.83;1.40;;;;;;;7.21;66.86;96165.66;5074891;28;20563;-85
2023/01/10 11:06:05;;;;;;;3.07;1.50;;;;;;;7.27;66.56;96165.91;5055355;28;20685;-83
2023/01/10 11:08:35;;;;;;;5.30;1.70;;;;;;;7.21;66.13;96178.47;5066151;28;20213;-82
2023/01/10 11:11:03;;;;;;;3.57;1.40;;;;;;;7.10;65.72;96179.44;5074091;28;20200;-82
2023/01/10 11:13:43;;;;;;;2.60;1.30;;;;;;;6.93;63.34;96180.97;5074553;28;20671;-82
2023/01/10 11:16:25;;;;;;;2.40;1.17;;;;;;;6.79;61.49;96178.03;5074418;28;20274;-82
2023/01/10 11:19:10;;;;;;;5.03;1.57;;;;;;;6.71;60.90;96189.00;5075114;28;20208;-82
2023/01/10 11:21:40;;;;;;;2.30;1.40;;;;;;;6.70;59.31;96184.00;5075475;28;20209;-82
2023/01/10 11:24:35;;;;;;;1.47;1.03;;;;;;;6.67;59.35;96184.28;5075433;28;20279;-85
2023/01/10 11:27:14;;;;;;;2.20;0.90;;;;;;;6.64;60.09;96175.13;5074172;28;20193;-85
2023/01/10 11:29:45;;;;;;;1.80;0.90;;;;;;;6.61;60.95;96177.94;5074614;28;20196;-85
2023/01/10 11:32:14;;;;;;;4.00;1.70;;;;;;;6.68;61.46;96178.22;5074970;28;20219;-85
2023/01/10 11:34:42;;;;;;;2.40;1.10;;;;;;;6.77;62.85;96183.28;5074307;28;20287;-85
2023/01/10 11:37:21;;;;;;;3.07;1.40;;;;;;;6.85;62.45;96183.44;5074565;28;20246;-85
2023/01/10 11:39:47;;;;;;;3.83;1.30;;;;;;;6.83;62.89;96192.19;5072399;28;20232;-85
2023/01/10 11:42:29;;;;;;;2.70;1.50;;;;;;;6.76;64.62;96178.31;5073908;28;20207;-85
2023/01/10 11:44:55;;;;;;;5.00;1.60;;;;;;;6.72;64.86;96179.56;5075119;28;20286;-85
2023/01/10 11:47:22;;;;;;;3.37;1.50;;;;;;;6.67;64.88;96185.09;5074347;28;20203;-85
2023/01/10 11:49:50;;;;;;;3.93;1.40;;;;;;;6.66;64.48;96174.97;5074365;28;20213;-85
2023/01/10 11:52:24;;;;;;;4.87;1.50;;;;;;;6.61;65.11;96183.06;5072223;28;20585;-83
2023/01/10 11:54:53;;;;;;;3.00;1.17;;;;;;;6.69;64.62;96201.09;5074807;28;20224;-85
2023/01/10 11:57:22;;;;;;;5.13;1.57;;;;;;;6.71;64.86;96194.09;5079950;28;20407;-85
2023/01/10 11:59:52;;;;;;;2.87;1.43;;;;;;;6.74;63.79;96193.81;5081378;28;20594;-83